sensor_id;sensor_type;location;lat;lon;timestamp;P1;durP1;ratioP1;P2;durP2;ratioP2
55312;SDS011;46892;45.668;11.756;2022-11-20T00:01:06;9.70;;;5.83;;
55312;SDS011;46892;45.668;11.756;2022-11-20T00:03:35;8.52;;;5.90;;
55312;SDS011;46892;45.668;11.756;2022-11-20T00:06:02;11.57;;;6.67;;
55312;SDS011;46892;45.668;11.756;2022-11-20T00:08:29;13.20;;;7.20;;
55312;SDS011;46892;45.668;11.756;2022-11-20T00:10:55;14.67;;;8.00;;
55312;SDS011;46892;45.668;11.756;2022-11-20T00:13:21;13.27;;;7.47;;
55312;SDS011;46892;45.668;11.756;2022-11-20T00:15:46;15.20;;;7.33;;
55312;SDS011;46892;45.668;11.756;2022-11-20T00:18:12;13.33;;;7.30;;
55312;SDS011;46892;45.668;11.756;2022-11-20T00:20:38;12.20;;;6.90;;
55312;SDS011;46892;45.668;11.756;2022-11-20T00:23:03;10.20;;;6.40;;
55312;SDS011;46892;45.668;11.756;2022-11-20T00:25:30;10.70;;;6.13;;
55312;SDS011;46892;45.668;11.756;2022-11-20T00:27:58;10.03;;;6.33;;
55312;SDS011;46892;45.668;11.756;2022-11-20T00:30:24;10.37;;;6.07;;
55312;SDS011;46892;45.668;11.756;2022-11-20T00:32:49;9.40;;;5.43;;
55312;SDS011;46892;45.668;11.756;2022-11-20T00:35:15;10.20;;;6.30;;
55312;SDS011;46892;45.668;11.756;2022-11-20T00:37:40;9.53;;;5.57;;
55312;SDS011;46892;45.668;11.756;2022-11-20T00:40:06;9.07;;;5.50;;
55312;SDS011;46892;45.668;11.756;2022-11-20T00:42:32;9.70;;;5.77;;
55312;SDS011;46892;45.668;11.756;2022-11-20T00:44:58;10.67;;;5.93;;
55312;SDS011;46892;45.668;11.756;2022-11-20T00:47:24;8.33;;;5.33;;
55312;SDS011;46892;45.668;11.756;2022-11-20T00:49:50;9.13;;;5.37;;
55312;SDS011;46892;45.668;11.756;2022-11-20T00:52:15;8.50;;;5.10;;
55312;SDS011;46892;45.668;11.756;2022-11-20T00:54:41;9.30;;;5.43;;
55312;SDS011;46892;45.668;11.756;2022-11-20T00:57:06;7.93;;;4.93;;
55312;SDS011;46892;45.668;11.756;2022-11-20T00:59:32;8.80;;;6.03;;
55312;SDS011;46892;45.668;11.756;2022-11-20T01:01:58;12.00;;;6.80;;
55312;SDS011;46892;45.668;11.756;2022-11-20T01:04:23;30.30;;;14.67;;
55312;SDS011;46892;45.668;11.756;2022-11-20T01:06:49;48.07;;;25.93;;
55312;SDS011;46892;45.668;11.756;2022-11-20T01:09:14;32.13;;;17.07;;
55312;SDS011;46892;45.668;11.756;2022-11-20T01:11:41;43.20;;;23.80;;
55312;SDS011;46892;45.668;11.756;2022-11-20T01:14:15;62.43;;;30.63;;
55312;SDS011;46892;45.668;11.756;2022-11-20T01:16:43;20.97;;;12.97;;
55312;SDS011;46892;45.668;11.756;2022-11-20T01:19:15;13.53;;;7.77;;
55312;SDS011;46892;45.668;11.756;2022-11-20T01:21:43;13.73;;;7.40;;
55312;SDS011;46892;45.668;11.756;2022-11-20T01:24:11;15.23;;;7.90;;
55312;SDS011;46892;45.668;11.756;2022-11-20T01:26:41;18.03;;;9.77;;
55312;SDS011;46892;45.668;11.756;2022-11-20T01:29:10;17.60;;;10.03;;
55312;SDS011;46892;45.668;11.756;2022-11-20T01:31:39;19.47;;;10.20;;
55312;SDS011;46892;45.668;11.756;2022-11-20T01:34:09;28.43;;;15.50;;
55312;SDS011;46892;45.668;11.756;2022-11-20T01:36:37;31.63;;;18.07;;
55312;SDS011;46892;45.668;11.756;2022-11-20T01:39:05;26.67;;;15.87;;
55312;SDS011;46892;45.668;11.756;2022-11-20T01:41:33;26.60;;;14.70;;
55312;SDS011;46892;45.668;11.756;2022-11-20T01:44:19;21.80;;;12.97;;
55312;SDS011;46892;45.668;11.756;2022-11-20T01:46:57;19.73;;;10.40;;
55312;SDS011;46892;45.668;11.756;2022-11-20T01:49:28;17.10;;;9.27;;
55312;SDS011;46892;45.668;11.756;2022-11-20T01:52:03;12.23;;;7.93;;
55312;SDS011;46892;45.668;11.756;2022-11-20T01:54:40;11.47;;;7.20;;
55312;SDS011;46892;45.668;11.756;2022-11-20T01:57:28;10.50;;;6.93;;
55312;SDS011;46892;45.668;11.756;2022-11-20T01:59:57;10.67;;;7.13;;
55312;SDS011;46892;45.668;11.756;2022-11-20T02:02:32;9.83;;;6.27;;
55312;SDS011;46892;45.668;11.756;2022-11-20T02:04:59;9.97;;;6.73;;
55312;SDS011;46892;45.668;11.756;2022-11-20T02:07:29;12.80;;;7.90;;
55312;SDS011;46892;45.668;11.756;2022-11-20T02:09:55;15.43;;;8.60;;
55312;SDS011;46892;45.668;11.756;2022-11-20T02:12:21;13.73;;;8.50;;
55312;SDS011;46892;45.668;11.756;2022-11-20T02:15:05;12.43;;;8.63;;
55312;SDS011;46892;45.668;11.756;2022-11-20T02:17:31;13.27;;;7.67;;
55312;SDS011;46892;45.668;11.756;2022-11-20T02:19:56;13.83;;;8.30;;
55312;SDS011;46892;45.668;11.756;2022-11-20T02:22:28;11.50;;;7.97;;
55312;SDS011;46892;45.668;11.756;2022-11-20T02:25:02;13.43;;;8.27;;
55312;SDS011;46892;45.668;11.756;2022-11-20T02:27:29;13.67;;;7.80;;
55312;SDS011;46892;45.668;11.756;2022-11-20T02:30:03;12.17;;;7.47;;
55312;SDS011;46892;45.668;11.756;2022-11-20T02:32:34;11.97;;;7.57;;
55312;SDS011;46892;45.668;11.756;2022-11-20T02:35:08;12.80;;;7.20;;
55312;SDS011;46892;45.668;11.756;2022-11-20T02:37:36;15.03;;;8.13;;
55312;SDS011;46892;45.668;11.756;2022-11-20T02:40:04;13.00;;;7.00;;
55312;SDS011;46892;45.668;11.756;2022-11-20T02:42:30;10.63;;;6.73;;
55312;SDS011;46892;45.668;11.756;2022-11-20T02:44:55;10.57;;;5.70;;
55312;SDS011;46892;45.668;11.756;2022-11-20T02:47:21;10.80;;;6.37;;
55312;SDS011;46892;45.668;11.756;2022-11-20T02:49:47;12.93;;;6.70;;
55312;SDS011;46892;45.668;11.756;2022-11-20T02:52:12;10.50;;;5.97;;
55312;SDS011;46892;45.668;11.756;2022-11-20T02:54:38;10.83;;;6.63;;
55312;SDS011;46892;45.668;11.756;2022-11-20T02:57:03;13.50;;;6.80;;
55312;SDS011;46892;45.668;11.756;2022-11-20T02:59:29;11.13;;;6.77;;
55312;SDS011;46892;45.668;11.756;2022-11-20T03:01:55;10.63;;;7.20;;
55312;SDS011;46892;45.668;11.756;2022-11-20T03:04:20;10.30;;;6.70;;
55312;SDS011;46892;45.668;11.756;2022-11-20T03:06:46;11.60;;;6.07;;
55312;SDS011;46892;45.668;11.756;2022-11-20T03:09:12;13.67;;;6.67;;
55312;SDS011;46892;45.668;11.756;2022-11-20T03:11:37;15.77;;;7.60;;
55312;SDS011;46892;45.668;11.756;2022-11-20T03:14:03;16.40;;;7.17;;
55312;SDS011;46892;45.668;11.756;2022-11-20T03:16:30;13.83;;;7.57;;
55312;SDS011;46892;45.668;11.756;2022-11-20T03:18:57;10.10;;;6.67;;
55312;SDS011;46892;45.668;11.756;2022-11-20T03:21:23;11.87;;;6.90;;
55312;SDS011;46892;45.668;11.756;2022-11-20T03:23:48;12.13;;;7.27;;
55312;SDS011;46892;45.668;11.756;2022-11-20T03:26:18;11.83;;;6.93;;
55312;SDS011;46892;45.668;11.756;2022-11-20T03:28:50;15.33;;;7.47;;
55312;SDS011;46892;45.668;11.756;2022-11-20T03:31:18;12.80;;;6.67;;
55312;SDS011;46892;45.668;11.756;2022-11-20T03:33:46;12.43;;;7.50;;
55312;SDS011;46892;45.668;11.756;2022-11-20T03:36:13;17.20;;;7.47;;
55312;SDS011;46892;45.668;11.756;2022-11-20T03:38:40;17.40;;;6.87;;
55312;SDS011;46892;45.668;11.756;2022-11-20T03:41:07;11.70;;;5.70;;
55312;SDS011;46892;45.668;11.756;2022-11-20T03:43:38;11.97;;;5.53;;
55312;SDS011;46892;45.668;11.756;2022-11-20T03:46:04;11.07;;;5.70;;
55312;SDS011;46892;45.668;11.756;2022-11-20T03:48:30;12.23;;;5.30;;
55312;SDS011;46892;45.668;11.756;2022-11-20T03:53:53;10.53;;;4.83;;
55312;SDS011;46892;45.668;11.756;2022-11-20T03:56:28;14.33;;;4.80;;
55312;SDS011;46892;45.668;11.756;2022-11-20T03:58:55;6.70;;;4.40;;
55312;SDS011;46892;45.668;11.756;2022-11-20T04:01:22;7.87;;;4.70;;
55312;SDS011;46892;45.668;11.756;2022-11-20T04:03:53;8.77;;;5.10;;
55312;SDS011;46892;45.668;11.756;2022-11-20T04:06:20;6.97;;;4.87;;
55312;SDS011;46892;45.668;11.756;2022-11-20T04:08:54;8.50;;;4.80;;
55312;SDS011;46892;45.668;11.756;2022-11-20T04:11:22;7.27;;;4.47;;
55312;SDS011;46892;45.668;11.756;2022-11-20T04:13:52;7.25;;;4.65;;
55312;SDS011;46892;45.668;11.756;2022-11-20T04:16:20;8.73;;;4.67;;
55312;SDS011;46892;45.668;11.756;2022-11-20T04:18:47;6.47;;;3.80;;
55312;SDS011;46892;45.668;11.756;2022-11-20T04:21:16;7.43;;;4.37;;
55312;SDS011;46892;45.668;11.756;2022-11-20T04:23:41;6.47;;;4.20;;
55312;SDS011;46892;45.668;11.756;2022-11-20T04:26:08;6.33;;;3.80;;
55312;SDS011;46892;45.668;11.756;2022-11-20T04:28:36;6.23;;;3.90;;
55312;SDS011;46892;45.668;11.756;2022-11-20T04:31:03;6.37;;;4.13;;
55312;SDS011;46892;45.668;11.756;2022-11-20T04:33:29;6.60;;;3.53;;
55312;SDS011;46892;45.668;11.756;2022-11-20T04:35:55;7.40;;;4.23;;
55312;SDS011;46892;45.668;11.756;2022-11-20T04:38:25;7.05;;;4.28;;
55312;SDS011;46892;45.668;11.756;2022-11-20T04:40:55;5.80;;;3.43;;
55312;SDS011;46892;45.668;11.756;2022-11-20T04:43:23;6.30;;;3.97;;
55312;SDS011;46892;45.668;11.756;2022-11-20T04:45:53;6.00;;;3.80;;
55312;SDS011;46892;45.668;11.756;2022-11-20T04:48:19;6.07;;;3.67;;
55312;SDS011;46892;45.668;11.756;2022-11-20T04:50:45;5.97;;;3.73;;
55312;SDS011;46892;45.668;11.756;2022-11-20T04:53:11;6.50;;;4.23;;
55312;SDS011;46892;45.668;11.756;2022-11-20T04:55:36;8.10;;;5.20;;
55312;SDS011;46892;45.668;11.756;2022-11-20T04:58:02;8.37;;;3.63;;
55312;SDS011;46892;45.668;11.756;2022-11-20T05:00:28;7.07;;;3.87;;
55312;SDS011;46892;45.668;11.756;2022-11-20T05:02:53;9.83;;;4.17;;
55312;SDS011;46892;45.668;11.756;2022-11-20T05:05:19;14.07;;;4.33;;
55312;SDS011;46892;45.668;11.756;2022-11-20T05:07:45;8.00;;;4.33;;
55312;SDS011;46892;45.668;11.756;2022-11-20T05:10:10;7.10;;;3.77;;
55312;SDS011;46892;45.668;11.756;2022-11-20T05:12:36;7.30;;;3.60;;
55312;SDS011;46892;45.668;11.756;2022-11-20T05:15:01;6.27;;;3.77;;
55312;SDS011;46892;45.668;11.756;2022-11-20T05:17:27;7.00;;;3.83;;
55312;SDS011;46892;45.668;11.756;2022-11-20T05:19:53;7.03;;;4.27;;
55312;SDS011;46892;45.668;11.756;2022-11-20T05:22:18;6.37;;;3.80;;
55312;SDS011;46892;45.668;11.756;2022-11-20T05:24:44;7.17;;;3.90;;
55312;SDS011;46892;45.668;11.756;2022-11-20T05:27:10;5.70;;;3.57;;
55312;SDS011;46892;45.668;11.756;2022-11-20T05:29:35;5.87;;;3.27;;
55312;SDS011;46892;45.668;11.756;2022-11-20T05:32:01;6.17;;;3.20;;
55312;SDS011;46892;45.668;11.756;2022-11-20T05:34:27;7.03;;;3.47;;
55312;SDS011;46892;45.668;11.756;2022-11-20T05:36:52;5.53;;;3.20;;
55312;SDS011;46892;45.668;11.756;2022-11-20T05:39:18;5.83;;;3.30;;
55312;SDS011;46892;45.668;11.756;2022-11-20T05:41:43;5.60;;;3.07;;
55312;SDS011;46892;45.668;11.756;2022-11-20T05:44:10;6.57;;;3.17;;
55312;SDS011;46892;45.668;11.756;2022-11-20T05:46:36;5.33;;;3.13;;
55312;SDS011;46892;45.668;11.756;2022-11-20T05:49:02;4.60;;;2.60;;
55312;SDS011;46892;45.668;11.756;2022-11-20T05:51:28;6.40;;;3.37;;
55312;SDS011;46892;45.668;11.756;2022-11-20T05:53:55;7.23;;;3.60;;
55312;SDS011;46892;45.668;11.756;2022-11-20T05:56:22;6.17;;;3.17;;
55312;SDS011;46892;45.668;11.756;2022-11-20T05:58:47;7.17;;;3.80;;
55312;SDS011;46892;45.668;11.756;2022-11-20T06:01:21;6.50;;;3.50;;
55312;SDS011;46892;45.668;11.756;2022-11-20T06:03:48;9.60;;;4.87;;
55312;SDS011;46892;45.668;11.756;2022-11-20T06:06:15;6.97;;;5.03;;
55312;SDS011;46892;45.668;11.756;2022-11-20T06:08:42;8.40;;;5.30;;
55312;SDS011;46892;45.668;11.756;2022-11-20T06:11:09;8.13;;;4.73;;
55312;SDS011;46892;45.668;11.756;2022-11-20T06:13:36;6.90;;;4.30;;
55312;SDS011;46892;45.668;11.756;2022-11-20T06:16:02;8.17;;;4.80;;
55312;SDS011;46892;45.668;11.756;2022-11-20T06:18:28;9.80;;;3.80;;
55312;SDS011;46892;45.668;11.756;2022-11-20T06:21:04;7.10;;;4.07;;
55312;SDS011;46892;45.668;11.756;2022-11-20T06:23:31;8.33;;;3.70;;
55312;SDS011;46892;45.668;11.756;2022-11-20T06:26:00;7.17;;;3.13;;
55312;SDS011;46892;45.668;11.756;2022-11-20T06:28:27;6.67;;;3.57;;
55312;SDS011;46892;45.668;11.756;2022-11-20T06:30:53;5.10;;;3.13;;
55312;SDS011;46892;45.668;11.756;2022-11-20T06:33:18;6.20;;;3.30;;
55312;SDS011;46892;45.668;11.756;2022-11-20T06:35:44;6.93;;;3.90;;
55312;SDS011;46892;45.668;11.756;2022-11-20T06:38:10;6.77;;;3.70;;
55312;SDS011;46892;45.668;11.756;2022-11-20T06:40:35;12.73;;;4.20;;
55312;SDS011;46892;45.668;11.756;2022-11-20T06:43:04;8.90;;;5.23;;
55312;SDS011;46892;45.668;11.756;2022-11-20T06:45:30;7.93;;;4.63;;
55312;SDS011;46892;45.668;11.756;2022-11-20T06:47:56;10.03;;;5.23;;
55312;SDS011;46892;45.668;11.756;2022-11-20T06:50:23;12.50;;;6.90;;
55312;SDS011;46892;45.668;11.756;2022-11-20T06:52:49;10.80;;;5.60;;
55312;SDS011;46892;45.668;11.756;2022-11-20T06:55:15;9.40;;;5.60;;
55312;SDS011;46892;45.668;11.756;2022-11-20T06:57:40;8.60;;;4.60;;
55312;SDS011;46892;45.668;11.756;2022-11-20T07:00:06;9.10;;;4.83;;
55312;SDS011;46892;45.668;11.756;2022-11-20T07:02:32;7.97;;;4.40;;
55312;SDS011;46892;45.668;11.756;2022-11-20T07:04:58;6.90;;;4.13;;
55312;SDS011;46892;45.668;11.756;2022-11-20T07:07:23;5.77;;;3.57;;
55312;SDS011;46892;45.668;11.756;2022-11-20T07:09:49;6.43;;;3.73;;
55312;SDS011;46892;45.668;11.756;2022-11-20T07:12:15;5.90;;;3.20;;
55312;SDS011;46892;45.668;11.756;2022-11-20T07:14:41;5.23;;;2.87;;
55312;SDS011;46892;45.668;11.756;2022-11-20T07:17:06;5.67;;;3.20;;
55312;SDS011;46892;45.668;11.756;2022-11-20T07:19:32;6.53;;;3.60;;
55312;SDS011;46892;45.668;11.756;2022-11-20T07:21:57;6.33;;;3.47;;
55312;SDS011;46892;45.668;11.756;2022-11-20T07:24:23;7.80;;;4.10;;
55312;SDS011;46892;45.668;11.756;2022-11-20T07:26:49;6.40;;;3.60;;
55312;SDS011;46892;45.668;11.756;2022-11-20T07:29:15;7.47;;;4.20;;
55312;SDS011;46892;45.668;11.756;2022-11-20T07:31:41;6.60;;;3.90;;
55312;SDS011;46892;45.668;11.756;2022-11-20T07:34:07;8.30;;;3.97;;
55312;SDS011;46892;45.668;11.756;2022-11-20T07:36:33;5.27;;;3.50;;
55312;SDS011;46892;45.668;11.756;2022-11-20T07:38:59;9.43;;;4.80;;
55312;SDS011;46892;45.668;11.756;2022-11-20T07:41:25;7.17;;;5.10;;
55312;SDS011;46892;45.668;11.756;2022-11-20T07:43:51;7.47;;;5.17;;
55312;SDS011;46892;45.668;11.756;2022-11-20T07:46:16;8.77;;;5.47;;
55312;SDS011;46892;45.668;11.756;2022-11-20T07:48:42;10.23;;;5.20;;
55312;SDS011;46892;45.668;11.756;2022-11-20T07:51:07;5.73;;;3.30;;
55312;SDS011;46892;45.668;11.756;2022-11-20T07:53:33;5.60;;;3.33;;
55312;SDS011;46892;45.668;11.756;2022-11-20T07:55:59;5.53;;;2.90;;
55312;SDS011;46892;45.668;11.756;2022-11-20T07:58:26;7.03;;;3.33;;
55312;SDS011;46892;45.668;11.756;2022-11-20T08:00:53;6.50;;;4.10;;
55312;SDS011;46892;45.668;11.756;2022-11-20T08:03:19;5.67;;;3.50;;
55312;SDS011;46892;45.668;11.756;2022-11-20T08:05:45;7.70;;;3.57;;
55312;SDS011;46892;45.668;11.756;2022-11-20T08:08:10;8.17;;;4.37;;
55312;SDS011;46892;45.668;11.756;2022-11-20T08:10:36;6.97;;;5.50;;
55312;SDS011;46892;45.668;11.756;2022-11-20T08:13:03;7.43;;;5.50;;
55312;SDS011;46892;45.668;11.756;2022-11-20T08:16:07;7.53;;;5.83;;
55312;SDS011;46892;45.668;11.756;2022-11-20T08:18:32;7.10;;;4.80;;
55312;SDS011;46892;45.668;11.756;2022-11-20T08:21:01;7.10;;;5.30;;
55312;SDS011;46892;45.668;11.756;2022-11-20T08:23:28;7.28;;;5.05;;
55312;SDS011;46892;45.668;11.756;2022-11-20T08:25:54;6.60;;;4.67;;
55312;SDS011;46892;45.668;11.756;2022-11-20T08:28:20;8.27;;;5.43;;
55312;SDS011;46892;45.668;11.756;2022-11-20T08:30:45;8.37;;;5.17;;
55312;SDS011;46892;45.668;11.756;2022-11-20T08:33:11;8.87;;;5.60;;
55312;SDS011;46892;45.668;11.756;2022-11-20T08:35:37;12.97;;;7.53;;
55312;SDS011;46892;45.668;11.756;2022-11-20T08:38:06;13.13;;;7.10;;
55312;SDS011;46892;45.668;11.756;2022-11-20T08:40:32;9.23;;;5.50;;
55312;SDS011;46892;45.668;11.756;2022-11-20T08:42:58;10.70;;;5.87;;
55312;SDS011;46892;45.668;11.756;2022-11-20T08:45:24;8.83;;;5.00;;
55312;SDS011;46892;45.668;11.756;2022-11-20T08:47:50;8.93;;;5.50;;
55312;SDS011;46892;45.668;11.756;2022-11-20T08:50:16;6.67;;;3.80;;
55312;SDS011;46892;45.668;11.756;2022-11-20T08:52:42;7.50;;;4.37;;
55312;SDS011;46892;45.668;11.756;2022-11-20T08:55:09;8.27;;;4.60;;
55312;SDS011;46892;45.668;11.756;2022-11-20T08:57:36;8.23;;;4.77;;
55312;SDS011;46892;45.668;11.756;2022-11-20T09:00:03;8.97;;;5.27;;
55312;SDS011;46892;45.668;11.756;2022-11-20T09:02:30;7.97;;;4.90;;
55312;SDS011;46892;45.668;11.756;2022-11-20T09:04:57;5.77;;;3.17;;
55312;SDS011;46892;45.668;11.756;2022-11-20T09:07:23;3.67;;;2.30;;
55312;SDS011;46892;45.668;11.756;2022-11-20T09:09:49;3.53;;;1.80;;
55312;SDS011;46892;45.668;11.756;2022-11-20T09:12:14;4.50;;;2.27;;
55312;SDS011;46892;45.668;11.756;2022-11-20T09:14:40;3.73;;;2.40;;
55312;SDS011;46892;45.668;11.756;2022-11-20T09:17:06;3.23;;;2.00;;
55312;SDS011;46892;45.668;11.756;2022-11-20T09:19:32;4.37;;;2.20;;
55312;SDS011;46892;45.668;11.756;2022-11-20T09:21:58;2.73;;;1.93;;
55312;SDS011;46892;45.668;11.756;2022-11-20T09:24:25;2.40;;;1.60;;
55312;SDS011;46892;45.668;11.756;2022-11-20T09:26:51;3.50;;;2.13;;
55312;SDS011;46892;45.668;11.756;2022-11-20T09:29:17;3.23;;;1.93;;
55312;SDS011;46892;45.668;11.756;2022-11-20T09:31:43;2.80;;;1.30;;
55312;SDS011;46892;45.668;11.756;2022-11-20T09:34:09;2.80;;;1.30;;
55312;SDS011;46892;45.668;11.756;2022-11-20T09:36:34;3.17;;;1.10;;
55312;SDS011;46892;45.668;11.756;2022-11-20T09:39:00;2.30;;;1.07;;
55312;SDS011;46892;45.668;11.756;2022-11-20T09:46:50;4.03;;;1.33;;
55312;SDS011;46892;45.668;11.756;2022-11-20T09:49:45;2.73;;;1.40;;
55312;SDS011;46892;45.668;11.756;2022-11-20T09:54:44;4.37;;;2.00;;
55312;SDS011;46892;45.668;11.756;2022-11-20T09:57:10;3.87;;;1.77;;
55312;SDS011;46892;45.668;11.756;2022-11-20T09:59:42;4.93;;;1.80;;
55312;SDS011;46892;45.668;11.756;2022-11-20T10:04:51;2.73;;;1.17;;
55312;SDS011;46892;45.668;11.756;2022-11-20T10:07:31;3.27;;;1.30;;
55312;SDS011;46892;45.668;11.756;2022-11-20T10:24:32;2.37;;;1.43;;
55312;SDS011;46892;45.668;11.756;2022-11-20T10:30:22;3.58;;;1.90;;
55312;SDS011;46892;45.668;11.756;2022-11-20T10:32:55;4.50;;;1.97;;
55312;SDS011;46892;45.668;11.756;2022-11-20T10:35:32;6.67;;;2.43;;
55312;SDS011;46892;45.668;11.756;2022-11-20T10:38:04;4.00;;;1.87;;
55312;SDS011;46892;45.668;11.756;2022-11-20T13:31:31;4.47;;;1.90;;
55312;SDS011;46892;45.668;11.756;2022-11-20T13:34:00;3.07;;;1.60;;
55312;SDS011;46892;45.668;11.756;2022-11-20T13:36:28;3.70;;;1.70;;
55312;SDS011;46892;45.668;11.756;2022-11-20T13:38:55;3.70;;;2.17;;
55312;SDS011;46892;45.668;11.756;2022-11-20T13:44:15;4.87;;;2.37;;
55312;SDS011;46892;45.668;11.756;2022-11-20T13:46:50;3.10;;;1.83;;
55312;SDS011;46892;45.668;11.756;2022-11-20T13:49:17;8.40;;;2.73;;
55312;SDS011;46892;45.668;11.756;2022-11-20T13:51:55;5.17;;;2.47;;
55312;SDS011;46892;45.668;11.756;2022-11-20T14:00:25;5.63;;;2.70;;
55312;SDS011;46892;45.668;11.756;2022-11-20T14:05:38;5.63;;;2.73;;
55312;SDS011;46892;45.668;11.756;2022-11-20T14:08:06;4.73;;;2.70;;
55312;SDS011;46892;45.668;11.756;2022-11-20T14:10:38;4.67;;;2.80;;
55312;SDS011;46892;45.668;11.756;2022-11-20T14:13:19;5.67;;;3.30;;
55312;SDS011;46892;45.668;11.756;2022-11-20T14:15:45;5.93;;;2.93;;
55312;SDS011;46892;45.668;11.756;2022-11-20T14:18:12;4.43;;;2.63;;
55312;SDS011;46892;45.668;11.756;2022-11-20T14:20:41;5.37;;;3.20;;
55312;SDS011;46892;45.668;11.756;2022-11-20T14:23:09;5.70;;;2.60;;
55312;SDS011;46892;45.668;11.756;2022-11-20T14:25:35;4.90;;;2.90;;
55312;SDS011;46892;45.668;11.756;2022-11-20T14:28:02;4.57;;;3.00;;
55312;SDS011;46892;45.668;11.756;2022-11-20T14:30:29;5.83;;;3.00;;
55312;SDS011;46892;45.668;11.756;2022-11-20T14:33:12;4.13;;;2.90;;
55312;SDS011;46892;45.668;11.756;2022-11-20T14:38:13;5.77;;;2.90;;
55312;SDS011;46892;45.668;11.756;2022-11-20T14:40:40;4.50;;;2.73;;
55312;SDS011;46892;45.668;11.756;2022-11-20T14:43:17;4.17;;;2.70;;
55312;SDS011;46892;45.668;11.756;2022-11-20T14:45:48;6.40;;;3.13;;
55312;SDS011;46892;45.668;11.756;2022-11-20T14:51:32;5.05;;;2.70;;
55312;SDS011;46892;45.668;11.756;2022-11-20T14:54:19;5.27;;;2.90;;
55312;SDS011;46892;45.668;11.756;2022-11-20T14:56:55;3.77;;;2.20;;
55312;SDS011;46892;45.668;11.756;2022-11-20T14:59:26;5.83;;;2.37;;
55312;SDS011;46892;45.668;11.756;2022-11-20T15:01:57;3.57;;;2.20;;
55312;SDS011;46892;45.668;11.756;2022-11-20T15:04:29;5.30;;;2.37;;
55312;SDS011;46892;45.668;11.756;2022-11-20T15:06:55;4.57;;;2.73;;
55312;SDS011;46892;45.668;11.756;2022-11-20T15:09:22;5.27;;;2.70;;
55312;SDS011;46892;45.668;11.756;2022-11-20T15:11:55;5.23;;;2.90;;
55312;SDS011;46892;45.668;11.756;2022-11-20T15:14:24;6.47;;;3.30;;
55312;SDS011;46892;45.668;11.756;2022-11-20T15:16:51;4.67;;;2.87;;
55312;SDS011;46892;45.668;11.756;2022-11-20T15:19:19;5.50;;;2.80;;
55312;SDS011;46892;45.668;11.756;2022-11-20T15:21:46;6.10;;;3.27;;
55312;SDS011;46892;45.668;11.756;2022-11-20T15:24:12;5.67;;;3.10;;
55312;SDS011;46892;45.668;11.756;2022-11-20T15:26:38;7.73;;;3.77;;
55312;SDS011;46892;45.668;11.756;2022-11-20T15:29:10;6.23;;;4.30;;
55312;SDS011;46892;45.668;11.756;2022-11-20T15:31:38;7.50;;;3.83;;
55312;SDS011;46892;45.668;11.756;2022-11-20T15:34:13;6.97;;;3.90;;
55312;SDS011;46892;45.668;11.756;2022-11-20T15:36:40;8.23;;;5.15;;
55312;SDS011;46892;45.668;11.756;2022-11-20T15:39:06;9.13;;;5.70;;
55312;SDS011;46892;45.668;11.756;2022-11-20T15:41:36;8.67;;;5.10;;
55312;SDS011;46892;45.668;11.756;2022-11-20T15:44:02;12.30;;;5.43;;
55312;SDS011;46892;45.668;11.756;2022-11-20T15:46:30;10.17;;;5.57;;
55312;SDS011;46892;45.668;11.756;2022-11-20T15:49:02;8.93;;;5.40;;
55312;SDS011;46892;45.668;11.756;2022-11-20T15:51:32;9.63;;;5.90;;
55312;SDS011;46892;45.668;11.756;2022-11-20T15:53:59;8.30;;;5.50;;
55312;SDS011;46892;45.668;11.756;2022-11-20T15:56:26;10.97;;;6.57;;
55312;SDS011;46892;45.668;11.756;2022-11-20T15:58:52;11.83;;;6.70;;
55312;SDS011;46892;45.668;11.756;2022-11-20T16:01:19;11.63;;;6.40;;
55312;SDS011;46892;45.668;11.756;2022-11-20T16:03:46;9.27;;;5.67;;
55312;SDS011;46892;45.668;11.756;2022-11-20T16:06:13;10.33;;;6.20;;
55312;SDS011;46892;45.668;11.756;2022-11-20T16:08:41;10.60;;;5.87;;
55312;SDS011;46892;45.668;11.756;2022-11-20T16:11:06;20.50;;;6.63;;
55312;SDS011;46892;45.668;11.756;2022-11-20T16:13:35;8.47;;;4.50;;
55312;SDS011;46892;45.668;11.756;2022-11-20T16:16:23;9.50;;;4.57;;
55312;SDS011;46892;45.668;11.756;2022-11-20T16:18:53;7.30;;;4.50;;
55312;SDS011;46892;45.668;11.756;2022-11-20T16:21:20;9.40;;;4.93;;
55312;SDS011;46892;45.668;11.756;2022-11-20T16:24:05;8.60;;;5.38;;
55312;SDS011;46892;45.668;11.756;2022-11-20T16:26:51;15.90;;;5.50;;
55312;SDS011;46892;45.668;11.756;2022-11-20T16:29:24;10.43;;;6.30;;
55312;SDS011;46892;45.668;11.756;2022-11-20T16:31:49;13.37;;;7.30;;
55312;SDS011;46892;45.668;11.756;2022-11-20T16:34:15;12.57;;;6.87;;
55312;SDS011;46892;45.668;11.756;2022-11-20T16:36:42;9.83;;;6.03;;
55312;SDS011;46892;45.668;11.756;2022-11-20T16:39:09;8.30;;;5.60;;
55312;SDS011;46892;45.668;11.756;2022-11-20T16:41:35;11.40;;;6.23;;
55312;SDS011;46892;45.668;11.756;2022-11-20T16:44:05;10.13;;;6.37;;
55312;SDS011;46892;45.668;11.756;2022-11-20T16:46:33;8.17;;;5.30;;
55312;SDS011;46892;45.668;11.756;2022-11-20T16:49:00;9.00;;;5.70;;
55312;SDS011;46892;45.668;11.756;2022-11-20T16:51:30;9.33;;;5.30;;
55312;SDS011;46892;45.668;11.756;2022-11-20T16:54:02;8.60;;;5.37;;
55312;SDS011;46892;45.668;11.756;2022-11-20T16:56:29;8.38;;;5.38;;
55312;SDS011;46892;45.668;11.756;2022-11-20T16:58:55;8.17;;;5.40;;
55312;SDS011;46892;45.668;11.756;2022-11-20T17:01:23;8.97;;;6.10;;
55312;SDS011;46892;45.668;11.756;2022-11-20T17:04:08;8.97;;;6.20;;
55312;SDS011;46892;45.668;11.756;2022-11-20T17:06:34;8.90;;;6.60;;
55312;SDS011;46892;45.668;11.756;2022-11-20T17:09:02;10.17;;;6.33;;
55312;SDS011;46892;45.668;11.756;2022-11-20T17:11:28;9.07;;;6.80;;
55312;SDS011;46892;45.668;11.756;2022-11-20T17:13:54;10.00;;;6.57;;
55312;SDS011;46892;45.668;11.756;2022-11-20T17:16:21;9.07;;;6.17;;
55312;SDS011;46892;45.668;11.756;2022-11-20T17:18:48;9.73;;;7.00;;
55312;SDS011;46892;45.668;11.756;2022-11-20T17:21:14;15.47;;;9.73;;
55312;SDS011;46892;45.668;11.756;2022-11-20T17:23:41;20.70;;;12.47;;
55312;SDS011;46892;45.668;11.756;2022-11-20T17:26:09;17.70;;;12.03;;
55312;SDS011;46892;45.668;11.756;2022-11-20T17:28:36;14.60;;;10.33;;
55312;SDS011;46892;45.668;11.756;2022-11-20T17:31:06;17.60;;;11.07;;
55312;SDS011;46892;45.668;11.756;2022-11-20T17:33:36;17.07;;;10.63;;
55312;SDS011;46892;45.668;11.756;2022-11-20T17:36:04;13.87;;;9.80;;
55312;SDS011;46892;45.668;11.756;2022-11-20T17:38:31;12.33;;;8.30;;
55312;SDS011;46892;45.668;11.756;2022-11-20T17:41:02;12.43;;;7.57;;
55312;SDS011;46892;45.668;11.756;2022-11-20T17:43:29;9.93;;;7.30;;
55312;SDS011;46892;45.668;11.756;2022-11-20T17:45:55;11.23;;;8.13;;
55312;SDS011;46892;45.668;11.756;2022-11-20T17:48:21;12.57;;;8.97;;
55312;SDS011;46892;45.668;11.756;2022-11-20T17:50:47;17.23;;;12.17;;
55312;SDS011;46892;45.668;11.756;2022-11-20T17:53:12;18.33;;;13.07;;
55312;SDS011;46892;45.668;11.756;2022-11-20T17:55:38;15.23;;;9.37;;
55312;SDS011;46892;45.668;11.756;2022-11-20T17:58:22;15.43;;;10.50;;
55312;SDS011;46892;45.668;11.756;2022-11-20T18:00:51;13.10;;;9.23;;
55312;SDS011;46892;45.668;11.756;2022-11-20T18:03:17;13.17;;;9.60;;
55312;SDS011;46892;45.668;11.756;2022-11-20T18:05:43;14.60;;;7.77;;
55312;SDS011;46892;45.668;11.756;2022-11-20T18:08:08;10.80;;;7.67;;
55312;SDS011;46892;45.668;11.756;2022-11-20T18:10:34;10.47;;;7.10;;
55312;SDS011;46892;45.668;11.756;2022-11-20T18:13:00;11.53;;;7.83;;